createdAt,value
2017-11-16T00:04:59.883Z,100409.59
2017-11-16T00:11:03.421Z,100399.79
2017-11-16T00:17:07.656Z,100405.45
2017-11-16T00:23:11.165Z,100405.36
2017-11-16T00:29:14.603Z,100390.82
2017-11-16T00:35:18.080Z,100390.91
2017-11-16T00:41:22.367Z,100379.85
2017-11-16T00:47:25.838Z,100375.97
2017-11-16T00:53:29.291Z,100370.64
2017-11-16T00:59:32.778Z,100368.68
2017-11-16T01:05:36.243Z,100374.94
2017-11-16T01:11:39.717Z,100367.42
2017-11-16T01:17:43.188Z,100372.94
2017-11-16T01:23:47.403Z,100368.27
2017-11-16T01:29:50.909Z,100371.68
2017-11-16T01:35:54.366Z,100379.14
2017-11-16T01:41:57.831Z,100365.09
2017-11-16T01:48:02.047Z,100367.22
2017-11-16T01:54:05.530Z,100359.88
2017-11-16T02:00:09.038Z,100355.92
2017-11-16T02:06:12.491Z,100354.42
2017-11-16T02:12:16.719Z,100352.55
2017-11-16T02:18:20.232Z,100329.53
2017-11-16T02:24:23.703Z,100327.74
2017-11-16T02:30:27.230Z,100320.53
2017-11-16T02:36:30.696Z,100309.27
2017-11-16T02:42:34.177Z,100313.08
2017-11-16T02:48:37.616Z,100300.85
2017-11-16T02:54:41.057Z,100308.61
2017-11-16T03:00:44.637Z,100309.73
2017-11-16T03:06:48.133Z,100309.23
2017-11-16T03:12:51.614Z,100305.82
2017-11-16T03:18:55.084Z,100296.23
2017-11-16T03:24:58.547Z,100287.60
2017-11-16T03:31:01.993Z,100287.10
2017-11-16T03:37:05.464Z,100287.60
2017-11-16T03:43:09.692Z,100289.11
2017-11-16T03:49:13.148Z,100283.73
2017-11-16T03:55:17.387Z,100282.98
2017-11-16T04:01:20.953Z,100273.94
2017-11-16T04:07:24.424Z,100263.02
2017-11-16T04:13:28.689Z,100264.07
2017-11-16T04:19:32.156Z,100270.89
2017-11-16T04:25:35.625Z,100265.52
2017-11-16T04:31:39.082Z,100266.09
2017-11-16T04:37:43.313Z,100265.52
2017-11-16T04:43:46.768Z,100268.01
2017-11-16T04:49:51.069Z,100269.72
2017-11-16T04:55:55.306Z,100265.05
2017-11-16T05:01:58.786Z,100265.28
2017-11-16T05:08:02.593Z,100273.88
2017-11-16T05:14:06.048Z,100283.48
2017-11-16T05:20:09.505Z,100279.53
2017-11-16T05:26:13.743Z,100281.91
2017-11-16T05:32:17.197Z,100277.56
2017-11-16T05:38:21.429Z,100282.64
2017-11-16T05:44:24.897Z,100288.23
2017-11-16T05:50:28.355Z,100284.59
2017-11-16T05:56:32.599Z,100278.77
2017-11-16T06:02:36.102Z,100276.12
2017-11-16T06:08:39.567Z,100280.11
2017-11-16T06:14:43.042Z,100275.81
2017-11-16T06:20:46.680Z,100278.67
2017-11-16T06:26:50.162Z,100292.60
2017-11-16T06:32:53.642Z,100289.34
2017-11-16T06:38:57.111Z,100284.93
2017-11-16T06:45:00.636Z,100294.92
2017-11-16T06:51:04.872Z,100293.44
2017-11-16T06:57:08.332Z,100283.70
2017-11-16T07:03:12.578Z,100295.23
2017-11-16T07:09:16.040Z,100306.11
2017-11-16T07:15:19.492Z,100309.08
2017-11-16T07:21:23.749Z,100297.55
2017-11-16T07:27:27.218Z,100294.72
2017-11-16T07:33:30.714Z,100294.19
2017-11-16T07:39:34.172Z,100290.30
2017-11-16T07:45:37.647Z,100292.98
2017-11-16T07:51:41.171Z,100295.48
2017-11-16T07:57:44.654Z,100282.38
2017-11-16T08:03:48.122Z,100294.52
2017-11-16T08:09:51.575Z,100300.95
2017-11-16T08:15:55.044Z,100298.83
2017-11-16T08:21:59.283Z,100289.00
2017-11-16T08:28:02.821Z,100294.67
2017-11-16T08:34:07.051Z,100284.77
2017-11-16T08:40:10.671Z,100280.97
2017-11-16T08:46:14.109Z,100271.35
2017-11-16T08:52:18.454Z,100278.23
2017-11-16T08:58:22.001Z,100279.44
2017-11-16T09:04:26.237Z,100272.31
2017-11-16T09:10:29.669Z,100275.86
2017-11-16T09:16:33.115Z,100278.40
2017-11-16T09:22:36.696Z,100286.11
2017-11-16T09:28:40.143Z,100291.81
2017-11-16T09:34:44.359Z,100304.19
2017-11-16T09:40:47.804Z,100293.23
2017-11-16T09:46:51.255Z,100296.23
2017-11-16T09:52:54.699Z,100288.81
2017-11-16T09:58:58.161Z,100291.14
2017-11-16T10:05:03.176Z,100275.84
2017-11-16T10:11:06.665Z,100291.56
2017-11-16T10:17:10.922Z,100278.21
2017-11-16T10:23:14.371Z,100260.84
2017-11-16T10:29:18.595Z,100236.12
2017-11-16T10:35:22.101Z,100231.52
2017-11-16T10:41:25.565Z,100234.42
2017-11-16T10:47:29.012Z,100231.34
2017-11-16T10:53:33.255Z,100221.39
2017-11-16T10:59:36.729Z,100217.95
2017-11-16T11:05:40.369Z,100222.02
2017-11-16T11:11:43.854Z,100197.63
2017-11-16T11:17:47.453Z,100199.38
2017-11-16T11:23:51.681Z,100207.81
2017-11-16T11:29:55.128Z,100212.12
2017-11-16T11:35:58.738Z,100214.44
2017-11-16T11:42:02.781Z,100219.71
2017-11-16T11:48:06.234Z,100210.17
2017-11-16T11:54:09.691Z,100189.84
2017-11-16T12:00:13.935Z,100182.98
2017-11-16T12:06:17.400Z,100171.53
2017-11-16T12:12:20.853Z,100181.34
2017-11-16T12:18:25.076Z,100173.39
2017-11-16T12:24:28.536Z,100167.98
2017-11-16T12:30:32.776Z,100151.81
2017-11-16T12:36:36.442Z,100149.84
2017-11-16T12:42:40.648Z,100147.36
2017-11-16T12:48:44.850Z,100149.34
2017-11-16T12:54:48.302Z,100141.59
2017-11-16T13:00:52.549Z,100132.49
2017-11-16T13:06:56.008Z,100134.07
2017-11-16T13:13:00.255Z,100126.72
2017-11-16T13:19:03.687Z,100119.47
2017-11-16T13:25:07.950Z,100107.70
2017-11-16T13:31:11.416Z,100104.48
2017-11-16T13:37:14.942Z,100101.80
2017-11-16T13:43:18.415Z,100105.03
2017-11-16T13:49:21.896Z,100097.61
2017-11-16T14:01:35.771Z,100108.98
2017-11-16T14:07:40.032Z,100105.45
2017-11-16T14:13:43.483Z,100100.95
2017-11-16T14:19:46.956Z,100088.63
2017-11-16T14:25:50.446Z,100080.55
2017-11-16T14:31:53.905Z,100075.86
2017-11-16T14:37:57.368Z,100078.94
2017-11-16T14:44:00.880Z,100079.27
2017-11-16T14:50:04.324Z,100074.61
2017-11-16T14:56:07.765Z,100075.61
2017-11-16T15:02:11.252Z,100084.98
2017-11-16T15:08:14.713Z,100085.27
2017-11-16T15:14:18.181Z,100091.70
2017-11-16T15:20:22.409Z,100093.15
2017-11-16T15:26:25.892Z,100089.23
2017-11-16T15:32:29.373Z,100087.92
2017-11-16T15:38:32.867Z,100082.56
2017-11-16T15:44:36.351Z,100091.37
2017-11-16T15:50:39.842Z,100083.28
2017-11-16T15:56:43.311Z,100077.91
2017-11-16T16:02:46.794Z,100080.17
2017-11-16T16:08:50.273Z,100096.33
2017-11-16T16:14:53.747Z,100094.02
2017-11-16T16:20:57.244Z,100085.52
2017-11-16T16:27:00.749Z,100095.13
2017-11-16T16:33:04.229Z,100098.73
2017-11-16T16:39:07.681Z,100091.78
2017-11-16T16:45:11.932Z,100089.30
2017-11-16T16:51:15.399Z,100095.63
2017-11-16T16:57:19.019Z,100087.30
2017-11-16T17:03:22.556Z,100085.84
2017-11-16T17:09:26.021Z,100082.52
2017-11-16T17:15:30.853Z,100071.62
2017-11-16T17:21:34.328Z,100081.35
2017-11-16T17:27:38.586Z,100062.34
2017-11-16T17:33:42.040Z,100081.35
2017-11-16T17:39:45.522Z,100099.08
2017-11-16T17:45:48.987Z,100103.44
2017-11-16T17:51:52.470Z,100098.70
2017-11-16T17:57:55.959Z,100116.29
2017-11-16T18:03:59.431Z,100120.28
2017-11-16T18:10:03.751Z,100118.66
2017-11-16T18:16:07.234Z,100120.25
2017-11-16T18:22:10.716Z,100124.28
2017-11-16T18:28:14.183Z,100122.95
2017-11-16T18:34:18.459Z,100113.05
2017-11-16T18:40:21.928Z,100100.53
2017-11-16T18:46:25.430Z,100090.04
2017-11-16T18:52:28.942Z,100094.37
2017-11-16T18:58:32.403Z,100087.29
2017-11-16T19:04:35.890Z,100094.58
2017-11-16T19:10:39.372Z,100091.87
2017-11-16T19:16:42.932Z,100092.66
2017-11-16T19:22:46.399Z,100103.81
2017-11-16T19:28:49.893Z,100104.61
2017-11-16T19:34:53.375Z,100102.99
2017-11-16T19:40:56.866Z,100100.75
2017-11-16T19:47:00.346Z,100107.03
2017-11-16T19:53:03.805Z,100119.67
2017-11-16T19:59:07.308Z,100116.80
2017-11-16T20:05:10.787Z,100125.58
2017-11-16T20:11:14.289Z,100114.84
2017-11-16T20:17:18.121Z,100114.77
2017-11-16T20:23:22.364Z,100120.12
2017-11-16T20:29:25.852Z,100131.02
2017-11-16T20:35:29.324Z,100131.70
2017-11-16T20:41:51.384Z,100126.08
2017-11-16T20:48:00.297Z,100114.97
2017-11-16T20:54:03.759Z,100124.29
2017-11-16T21:00:07.232Z,100130.94
2017-11-16T21:06:10.719Z,100129.73
2017-11-16T21:12:14.175Z,100118.48
2017-11-16T21:18:17.601Z,100115.53
2017-11-16T21:24:21.090Z,100120.23
2017-11-16T21:30:24.551Z,100116.73
2017-11-16T21:36:28.047Z,100115.53
2017-11-16T21:42:31.509Z,100112.67
2017-11-16T21:48:34.988Z,100122.04
2017-11-16T21:54:38.443Z,100124.23
2017-11-16T22:00:42.672Z,100133.16
2017-11-16T22:06:46.149Z,100138.18
2017-11-16T22:12:49.603Z,100127.99
2017-11-16T22:18:53.837Z,100128.63
2017-11-16T22:24:57.311Z,100133.06
2017-11-16T22:31:00.799Z,100133.09
2017-11-16T22:37:04.264Z,100143.83
2017-11-16T22:43:08.531Z,100137.17
2017-11-16T22:49:11.988Z,100135.37
2017-11-16T22:55:15.462Z,100125.56
2017-11-16T23:01:18.928Z,100127.47
2017-11-16T23:07:22.397Z,100130.42
2017-11-16T23:13:26.658Z,100133.91
2017-11-16T23:19:30.146Z,100125.56
2017-11-16T23:25:33.639Z,100137.49
2017-11-16T23:31:37.112Z,100135.42
2017-11-16T23:37:40.594Z,100134.46
2017-11-16T23:43:44.069Z,100128.36
2017-11-16T23:49:47.539Z,100132.31
2017-11-16T23:55:50.996Z,100127.20
